Time;durP1;ratioP1;P1;durP2;ratioP2;P2;SDS_P1;SDS_P2;PMS_P1;PMS_P2;Temp;Humidity;BMP_temperature;BMP_pressure;BME280_temperature;BME280_humidity;BME280_pressure;Samples;Min_cycle;Max_cycle;Signal;HPM_P1;HPM_P2
2023/04/20 00:00:10;;;;;;;97.38;53.58;;;16.50;72.90;;;;;;5000297;28;89900;-78
2023/04/20 00:02:39;;;;;;;96.57;53.17;;;16.40;73.00;;;;;;4997332;28;90821;-77
2023/04/20 00:05:06;;;;;;;98.53;53.75;;;16.40;73.00;;;;;;4998328;28;92701;-76
2023/04/20 00:07:32;;;;;;;98.60;53.55;;;16.50;73.10;;;;;;4998994;28;92526;-79
2023/04/20 00:09:58;;;;;;;96.30;53.22;;;16.40;72.90;;;;;;5010045;27;90225;-76
2023/04/20 00:12:24;;;;;;;96.78;53.13;;;16.40;73.10;;;;;;5001174;28;90220;-76
2023/04/20 00:14:50;;;;;;;96.28;53.25;;;16.40;73.20;;;;;;5017163;27;92845;-79
2023/04/20 00:17:16;;;;;;;97.90;53.50;;;16.40;72.80;;;;;;5001780;28;89174;-77
2023/04/20 00:19:42;;;;;;;98.93;53.47;;;16.40;72.80;;;;;;5001924;28;90188;-76
2023/04/20 00:22:08;;;;;;;96.93;53.17;;;16.40;72.80;;;;;;5004264;28;89482;-77
2023/04/20 00:24:33;;;;;;;97.45;53.45;;;16.40;72.80;;;;;;4998526;28;93888;-77
2023/04/20 00:26:59;;;;;;;96.65;53.35;;;16.40;72.60;;;;;;4995372;28;90153;-78
2023/04/20 00:29:25;;;;;;;96.55;53.33;;;16.30;72.60;;;;;;5000292;28;89638;-80
2023/04/20 00:31:50;;;;;;;97.90;53.53;;;16.30;72.60;;;;;;4996464;28;91411;-78
2023/04/20 00:34:16;;;;;;;97.38;53.03;;;16.30;72.40;;;;;;4999507;28;90048;-78
2023/04/20 00:36:42;;;;;;;96.05;53.08;;;16.30;72.30;;;;;;5004795;28;90917;-77
2023/04/20 00:39:07;;;;;;;97.07;53.22;;;16.30;72.50;;;;;;5002159;28;89621;-78
2023/04/20 00:41:33;;;;;;;95.97;53.15;;;16.30;72.50;;;;;;4998185;28;90627;-78
2023/04/20 00:43:59;;;;;;;97.28;53.53;;;16.30;72.40;;;;;;4998938;28;93922;-79
2023/04/20 00:46:25;;;;;;;96.38;53.35;;;16.20;72.30;;;;;;5001924;28;90055;-77
2023/04/20 00:48:52;;;;;;;96.40;53.38;;;16.30;72.30;;;;;;5000740;28;88721;-78
2023/04/20 00:51:22;;;;;;;96.15;53.28;;;16.20;72.30;;;;;;4998716;28;93027;-79
2023/04/20 00:53:48;;;;;;;96.38;53.30;;;16.20;72.20;;;;;;4998440;28;93683;-78
2023/04/20 00:56:15;;;;;;;97.00;53.20;;;16.20;72.50;;;;;;5000586;28;91283;-76
2023/04/20 00:58:45;;;;;;;96.22;52.95;;;16.20;72.30;;;;;;4999740;28;89919;-77
2023/04/20 01:01:11;;;;;;;96.63;53.10;;;16.20;72.30;;;;;;5001335;28;93724;-77
2023/04/20 01:03:38;;;;;;;96.70;53.45;;;16.20;72.30;;;;;;5013381;27;91797;-77
2023/04/20 01:06:05;;;;;;;95.88;52.92;;;16.20;72.20;;;;;;4997003;28;89474;-77
2023/04/20 01:08:31;;;;;;;95.88;52.88;;;16.20;72.10;;;;;;4997188;28;89342;-81
2023/04/20 01:10:57;;;;;;;96.00;53.03;;;16.10;72.10;;;;;;5001690;28;89515;-78
2023/04/20 01:13:22;;;;;;;96.43;53.47;;;16.10;72.10;;;;;;4995896;28;92755;-80
2023/04/20 01:15:48;;;;;;;95.97;53.22;;;16.10;71.90;;;;;;5015354;27;92251;-76
2023/04/20 01:18:16;;;;;;;97.93;53.55;;;16.10;72.10;;;;;;4996303;28;93585;-81
2023/04/20 01:20:43;;;;;;;96.40;53.10;;;16.10;71.80;;;;;;5000006;28;95164;-76
2023/04/20 01:23:08;;;;;;;96.53;53.10;;;16.10;71.90;;;;;;4998236;28;91088;-77
2023/04/20 01:25:35;;;;;;;96.05;53.03;;;16.10;71.90;;;;;;5001398;28;90406;-78
2023/04/20 01:28:00;;;;;;;95.80;53.03;;;16.10;72.00;;;;;;5000973;28;89685;-77
2023/04/20 01:30:27;;;;;;;96.80;53.10;;;16.00;71.70;;;;;;5001134;28;92930;-78
2023/04/20 01:32:53;;;;;;;95.70;53.13;;;16.10;71.90;;;;;;5000120;28;92292;-77
2023/04/20 01:35:18;;;;;;;95.28;53.17;;;16.10;71.90;;;;;;5000775;28;90878;-76
2023/04/20 01:37:44;;;;;;;95.72;53.25;;;16.00;71.70;;;;;;5001591;28;88590;-77
2023/04/20 01:40:12;;;;;;;96.25;53.25;;;16.00;71.60;;;;;;4998927;28;95572;-77
2023/04/20 01:42:38;;;;;;;96.75;53.03;;;16.00;71.60;;;;;;4999102;28;95066;-77
2023/04/20 01:45:07;;;;;;;95.40;53.00;;;16.00;71.60;;;;;;5000330;28;91051;-78
2023/04/20 01:47:33;;;;;;;95.63;53.22;;;16.00;71.80;;;;;;4998349;28;89596;-82
2023/04/20 01:49:59;;;;;;;95.32;52.65;;;16.00;71.70;;;;;;5000961;28;93797;-76
2023/04/20 01:52:25;;;;;;;95.43;53.00;;;15.90;71.50;;;;;;5015348;27;92785;-78
2023/04/20 01:54:51;;;;;;;94.40;52.70;;;15.90;71.70;;;;;;5001751;28;89712;-78
2023/04/20 01:57:16;;;;;;;96.32;53.05;;;15.90;71.60;;;;;;4995976;28;90107;-79
2023/04/20 01:59:42;;;;;;;95.53;53.17;;;15.90;71.70;;;;;;4993462;28;92609;-77
2023/04/20 02:02:08;;;;;;;95.63;53.25;;;15.90;71.80;;;;;;5002016;28;93744;-76
2023/04/20 02:04:33;;;;;;;95.47;52.83;;;15.90;71.70;;;;;;5001811;28;89472;-81
2023/04/20 02:06:59;;;;;;;95.75;53.13;;;15.90;71.70;;;;;;5000150;28;90115;-78
2023/04/20 02:09:25;;;;;;;95.72;53.22;;;15.90;71.60;;;;;;4997299;28;94276;-77
2023/04/20 02:11:50;;;;;;;95.57;52.92;;;15.90;71.50;;;;;;4999081;28;95192;-76
2023/04/20 02:14:16;;;;;;;95.95;52.92;;;15.90;71.50;;;;;;4993490;28;89934;-79
2023/04/20 02:16:41;;;;;;;95.57;53.10;;;15.90;71.60;;;;;;4993471;28;89879;-81
2023/04/20 02:19:07;;;;;;;95.30;52.92;;;15.90;71.60;;;;;;4992819;28;93307;-77
2023/04/20 02:21:33;;;;;;;95.00;52.67;;;15.80;71.60;;;;;;4995068;28;89396;-79
2023/04/20 02:24:00;;;;;;;95.22;52.78;;;15.90;71.70;;;;;;4994694;28;90287;-78
2023/04/20 02:26:26;;;;;;;96.50;53.22;;;15.80;71.60;;;;;;4993250;28;89937;-78
2023/04/20 02:28:51;;;;;;;95.25;52.97;;;15.80;71.50;;;;;;4991555;28;92320;-80
2023/04/20 02:31:17;;;;;;;96.32;53.35;;;15.80;71.40;;;;;;4994236;28;90051;-82
2023/04/20 02:33:43;;;;;;;95.32;53.10;;;15.80;71.20;;;;;;4995657;28;91438;-79
2023/04/20 02:36:09;;;;;;;96.50;53.75;;;15.80;71.20;;;;;;5008649;27;92875;-82
2023/04/20 02:38:34;;;;;;;95.60;53.28;;;15.80;71.20;;;;;;4994863;28;92830;-76
2023/04/20 02:41:00;;;;;;;95.47;53.03;;;15.70;71.20;;;;;;4994488;28;92858;-79
2023/04/20 02:43:26;;;;;;;95.78;52.85;;;15.70;71.30;;;;;;4995767;28;90016;-78
2023/04/20 02:45:51;;;;;;;97.35;53.40;;;15.70;71.10;;;;;;4996782;28;89693;-77
2023/04/20 02:48:17;;;;;;;94.78;53.17;;;15.70;71.20;;;;;;4998867;28;93394;-78
2023/04/20 02:50:43;;;;;;;95.90;53.22;;;15.70;71.00;;;;;;4992759;28;89961;-80
2023/04/20 02:53:09;;;;;;;94.82;52.65;;;15.70;71.10;;;;;;4993817;28;90010;-80
2023/04/20 02:55:34;;;;;;;95.90;53.33;;;15.70;71.30;;;;;;4992930;28;89704;-76
2023/04/20 02:58:02;;;;;;;95.45;53.00;;;15.70;71.20;;;;;;4995563;28;92252;-80
2023/04/20 03:00:27;;;;;;;95.15;52.90;;;15.70;71.20;;;;;;4993658;28;91295;-77
2023/04/20 03:02:53;;;;;;;94.90;52.90;;;15.70;71.90;;;;;;4997444;28;89657;-80
2023/04/20 03:05:18;;;;;;;94.90;52.85;;;15.70;71.20;;;;;;4996436;28;90248;-77
2023/04/20 03:07:44;;;;;;;95.43;53.17;;;15.60;71.10;;;;;;4998534;28;92644;-77
2023/04/20 03:10:10;;;;;;;94.55;52.97;;;15.60;71.10;;;;;;4998586;28;89955;-77
2023/04/20 03:12:36;;;;;;;95.47;53.08;;;15.60;71.20;;;;;;5001628;28;90003;-77
2023/04/20 03:15:05;;;;;;;94.75;52.92;;;15.60;71.20;;;;;;5002587;28;88745;-77
2023/04/20 03:17:30;;;;;;;94.65;53.10;;;15.60;71.00;;;;;;5000756;28;92251;-80
2023/04/20 03:19:56;;;;;;;94.50;52.88;;;15.60;71.00;;;;;;5000973;28;89788;-78
2023/04/20 03:22:22;;;;;;;94.75;52.65;;;15.50;70.90;;;;;;4996472;28;91328;-77
2023/04/20 03:24:47;;;;;;;94.85;53.28;;;15.50;70.90;;;;;;4993750;28;89513;-80
2023/04/20 03:27:13;;;;;;;95.18;53.33;;;15.60;71.00;;;;;;4991732;28;93543;-82
2023/04/20 03:29:39;;;;;;;96.55;53.30;;;15.50;70.90;;;;;;4994754;28;93459;-77
2023/04/20 03:32:05;;;;;;;94.43;52.97;;;15.50;70.70;;;;;;4995801;28;89630;-78
2023/04/20 03:34:31;;;;;;;95.70;53.45;;;15.50;70.80;;;;;;4993850;28;90661;-77
2023/04/20 03:36:57;;;;;;;94.35;52.95;;;15.50;70.80;;;;;;4992545;28;93977;-77
2023/04/20 03:39:22;;;;;;;94.68;53.05;;;15.50;70.60;;;;;;4990221;28;92901;-79
2023/04/20 03:41:48;;;;;;;94.63;53.10;;;15.50;70.70;;;;;;4996610;28;89752;-78
2023/04/20 03:44:14;;;;;;;94.78;53.10;;;15.50;70.80;;;;;;4994351;28;89749;-77
2023/04/20 03:46:40;;;;;;;95.05;52.88;;;15.40;70.60;;;;;;4994776;28;94264;-77
2023/04/20 03:49:05;;;;;;;94.65;53.03;;;15.40;70.70;;;;;;4992965;28;92136;-77
2023/04/20 03:51:31;;;;;;;95.05;52.78;;;15.40;70.70;;;;;;4990235;28;92350;-79
2023/04/20 03:53:57;;;;;;;95.78;53.17;;;15.40;70.60;;;;;;4993355;28;90129;-77
2023/04/20 03:56:23;;;;;;;95.00;53.20;;;15.40;70.70;;;;;;4993173;28;92494;-78
2023/04/20 03:58:48;;;;;;;94.90;53.15;;;15.40;70.80;;;;;;4998118;28;93842;-78
2023/04/20 04:01:14;;;;;;;95.80;53.28;;;15.40;70.60;;;;;;4997060;28;89947;-78
2023/04/20 04:03:40;;;;;;;95.15;53.10;;;15.40;70.60;;;;;;4992462;28;93641;-77
2023/04/20 04:06:06;;;;;;;94.90;53.08;;;15.40;70.60;;;;;;4995304;28;93613;-79
2023/04/20 04:08:32;;;;;;;94.22;52.58;;;15.40;70.60;;;;;;4996877;28;92765;-80
2023/04/20 04:10:58;;;;;;;94.53;53.08;;;15.30;70.50;;;;;;5008849;27;91288;-77
2023/04/20 04:13:24;;;;;;;95.57;53.15;;;15.40;70.60;;;;;;4989905;28;90263;-79
2023/04/20 04:15:49;;;;;;;94.53;52.95;;;15.30;70.60;;;;;;4987737;28;93184;-79
2023/04/20 04:18:15;;;;;;;95.13;53.25;;;15.30;70.50;;;;;;4980580;28;89635;-79
2023/04/20 04:20:41;;;;;;;95.07;53.15;;;15.30;70.60;;;;;;4981559;28;89356;-78
2023/04/20 04:23:06;;;;;;;93.72;52.78;;;15.30;70.60;;;;;;4991913;28;89978;-82
2023/04/20 04:25:32;;;;;;;95.30;53.17;;;15.30;70.50;;;;;;4977730;28;91952;-78
2023/04/20 04:27:58;;;;;;;94.05;53.08;;;15.30;70.70;;;;;;4987798;28;92747;-78
2023/04/20 04:30:25;;;;;;;94.10;53.08;;;15.30;70.50;;;;;;4982349;28;90452;-81
2023/04/20 04:32:50;;;;;;;94.63;52.58;;;15.30;70.60;;;;;;4985055;28;92304;-77
2023/04/20 04:35:16;;;;;;;95.68;53.03;;;15.20;70.50;;;;;;4988327;28;93971;-78
2023/04/20 04:37:42;;;;;;;94.88;52.92;;;15.20;70.60;;;;;;5002386;27;93605;-78
2023/04/20 04:40:08;;;;;;;96.28;52.83;;;15.20;70.50;;;;;;4987506;28;89788;-78
2023/04/20 04:42:34;;;;;;;94.50;52.85;;;15.20;70.50;;;;;;4990267;28;90206;-76
2023/04/20 04:45:01;;;;;;;94.30;52.78;;;15.20;70.50;;;;;;4990908;28;92857;-77
2023/04/20 04:47:30;;;;;;;94.55;52.92;;;15.20;70.50;;;;;;4992265;28;91992;-76
2023/04/20 04:49:56;;;;;;;94.63;52.80;;;15.20;70.50;;;;;;4993927;28;89722;-77
2023/04/20 04:52:22;;;;;;;96.10;53.33;;;15.20;70.40;;;;;;4994359;28;88694;-76
2023/04/20 04:54:48;;;;;;;94.13;52.67;;;15.20;70.40;;;;;;4991308;28;93921;-77
2023/04/20 04:57:14;;;;;;;93.85;52.65;;;15.20;70.70;;;;;;4991541;28;93154;-77
2023/04/20 04:59:40;;;;;;;94.30;53.05;;;15.10;70.30;;;;;;4997478;28;92205;-80
2023/04/20 05:02:06;;;;;;;94.32;53.10;;;15.10;70.30;;;;;;4994905;28;90427;-78
2023/04/20 05:04:31;;;;;;;93.95;52.70;;;15.10;70.20;;;;;;4994344;28;95923;-78
2023/04/20 05:06:57;;;;;;;94.18;52.95;;;15.10;70.30;;;;;;4991502;28;92968;-78
2023/04/20 05:09:22;;;;;;;93.18;52.45;;;15.10;70.40;;;;;;4994783;28;90787;-79
2023/04/20 05:11:48;;;;;;;96.95;52.88;;;15.10;70.60;;;;;;4997421;28;90095;-78
2023/04/20 05:14:14;;;;;;;94.57;52.75;;;15.10;70.90;;;;;;4995840;28;92785;-81
2023/04/20 05:16:40;;;;;;;95.13;53.15;;;15.10;70.60;;;;;;4995170;28;90896;-78
2023/04/20 05:19:05;;;;;;;94.30;53.10;;;15.10;70.90;;;;;;4992878;28;89868;-78
2023/04/20 05:21:31;;;;;;;97.45;52.75;;;15.10;71.00;;;;;;5000383;28;89579;-77
2023/04/20 05:23:57;;;;;;;94.15;52.85;;;15.10;71.10;;;;;;4997693;28;91721;-77
2023/04/20 05:26:23;;;;;;;94.45;53.03;;;15.00;70.90;;;;;;4995362;28;94108;-77
2023/04/20 05:28:48;;;;;;;93.50;52.85;;;15.00;71.10;;;;;;4999477;28;89384;-77
2023/04/20 05:31:14;;;;;;;94.50;52.60;;;15.00;70.90;;;;;;4997474;28;89694;-78
2023/04/20 05:33:40;;;;;;;95.78;53.38;;;15.00;71.10;;;;;;4994335;28;94149;-78
2023/04/20 05:36:09;;;;;;;94.35;52.88;;;15.00;70.90;;;;;;4995434;28;92736;-81
2023/04/20 05:38:34;;;;;;;95.22;52.70;;;15.00;70.80;;;;;;4998284;28;89700;-76
2023/04/20 05:41:00;;;;;;;93.32;52.30;;;15.00;71.10;;;;;;4999285;28;88609;-80
2023/04/20 05:43:25;;;;;;;94.88;53.40;;;15.00;71.50;;;;;;4995217;28;89698;-76
2023/04/20 05:45:51;;;;;;;98.97;53.53;;;15.00;72.50;;;;;;4994252;28;92429;-76
2023/04/20 05:48:17;;;;;;;96.38;53.08;;;15.00;72.60;;;;;;4991460;28;91223;-76
2023/04/20 05:50:42;;;;;;;96.70;53.17;;;15.00;72.90;;;;;;4993033;28;92220;-81
2023/04/20 05:53:08;;;;;;;96.40;52.72;;;15.10;72.90;;;;;;4996609;28;92886;-76
2023/04/20 05:55:33;;;;;;;97.70;53.33;;;15.10;72.50;;;;;;4993768;28;92139;-76
2023/04/20 05:57:59;;;;;;;97.93;53.30;;;15.00;72.30;;;;;;5000266;28;89877;-76
2023/04/20 06:00:25;;;;;;;97.45;52.95;;;15.00;72.10;;;;;;4999456;28;89835;-77
2023/04/20 06:02:51;;;;;;;95.20;53.05;;;15.10;72.10;;;;;;4998576;28;90418;-77
2023/04/20 06:05:16;;;;;;;96.32;53.42;;;15.10;71.70;;;;;;4996773;28;94321;-80
2023/04/20 06:07:42;;;;;;;97.55;53.10;;;15.10;71.50;;;;;;4996850;28;90609;-77
2023/04/20 06:10:08;;;;;;;97.43;53.55;;;15.10;71.80;;;;;;5000978;28;90201;-77
2023/04/20 06:12:34;;;;;;;97.15;53.60;;;15.10;72.00;;;;;;4998261;28;90736;-77
2023/04/20 06:15:00;;;;;;;99.57;53.50;;;15.10;71.80;;;;;;5000212;28;90982;-82
2023/04/20 06:17:25;;;;;;;98.40;53.47;;;15.10;71.70;;;;;;4999354;28;90039;-77
2023/04/20 06:19:52;;;;;;;96.88;53.50;;;15.10;72.10;;;;;;5007490;28;90273;-77
2023/04/20 06:22:18;;;;;;;99.18;53.88;;;15.10;71.40;;;;;;4991960;28;93597;-81
2023/04/20 06:24:44;;;;;;;98.15;53.85;;;15.10;70.80;;;;;;4995024;28;92814;-81
2023/04/20 06:27:10;;;;;;;100.57;54.03;;;15.10;70.30;;;;;;4994917;28;90230;-77
2023/04/20 06:29:36;;;;;;;99.35;54.05;;;15.10;70.40;;;;;;4995337;28;89330;-80
2023/04/20 06:32:02;;;;;;;97.72;53.35;;;15.10;70.90;;;;;;4995976;28;90105;-80
2023/04/20 06:34:28;;;;;;;97.03;53.30;;;15.20;71.20;;;;;;4997317;28;91124;-80
2023/04/20 06:36:54;;;;;;;96.72;53.65;;;15.20;71.30;;;;;;4995314;28;90499;-79
2023/04/20 06:39:20;;;;;;;97.50;53.22;;;15.20;71.60;;;;;;4996065;28;90183;-78
2023/04/20 06:41:45;;;;;;;96.35;53.88;;;15.20;71.30;;;;;;4992956;28;91094;-79
2023/04/20 06:44:11;;;;;;;99.57;53.72;;;15.20;71.20;;;;;;4996657;28;90667;-78
2023/04/20 06:46:37;;;;;;;97.50;53.58;;;15.20;71.50;;;;;;4997933;28;89659;-78
2023/04/20 06:49:02;;;;;;;97.28;53.95;;;15.20;71.70;;;;;;4998191;28;90076;-78
2023/04/20 06:51:31;;;;;;;99.88;53.78;;;15.20;72.00;;;;;;4998901;28;92956;-77
2023/04/20 06:53:57;;;;;;;100.80;54.10;;;15.30;71.80;;;;;;4993297;28;91650;-79
2023/04/20 06:56:22;;;;;;;98.95;53.72;;;15.30;71.90;;;;;;4997649;28;92563;-76
2023/04/20 06:58:48;;;;;;;99.70;53.90;;;15.30;72.10;;;;;;4995154;28;89864;-82
2023/04/20 07:01:14;;;;;;;99.63;54.28;;;15.30;72.30;;;;;;4999970;28;92016;-77
2023/04/20 07:03:40;;;;;;;100.85;54.08;;;15.30;72.20;;;;;;4995205;28;93573;-77
2023/04/20 07:06:06;;;;;;;102.72;54.42;;;15.30;72.30;;;;;;4997899;28;90226;-78
2023/04/20 07:08:32;;;;;;;99.18;53.92;;;15.30;71.90;;;;;;5003105;28;92093;-77
2023/04/20 07:10:58;;;;;;;103.15;54.67;;;15.30;71.80;;;;;;4995554;28;90035;-77
2023/04/20 07:13:24;;;;;;;104.40;54.35;;;15.30;72.50;;;;;;5012200;27;92806;-79
2023/04/20 07:15:50;;;;;;;99.63;54.47;;;15.40;72.50;;;;;;4999899;28;90011;-77
2023/04/20 07:18:15;;;;;;;102.57;54.05;;;15.30;72.20;;;;;;4998049;28;91348;-76
2023/04/20 07:20:41;;;;;;;99.63;54.35;;;15.40;72.10;;;;;;5000427;28;90733;-80
2023/04/20 07:23:07;;;;;;;100.10;53.85;;;15.40;72.30;;;;;;4999666;28;89997;-77
2023/04/20 07:25:32;;;;;;;101.00;54.45;;;15.40;72.10;;;;;;4993015;28;93070;-76
2023/04/20 07:27:58;;;;;;;101.93;54.22;;;15.40;72.40;;;;;;4991730;28;92370;-76
2023/04/20 07:30:24;;;;;;;100.63;53.97;;;15.40;72.50;;;;;;4995123;28;90657;-80
2023/04/20 07:32:50;;;;;;;104.53;54.28;;;15.40;72.60;;;;;;4992408;28;90842;-80
2023/04/20 07:35:16;;;;;;;106.95;54.15;;;15.40;72.60;;;;;;4994087;28;90017;-75
2023/04/20 07:37:42;;;;;;;101.72;54.25;;;15.40;72.60;;;;;;4993526;28;90000;-78
2023/04/20 07:40:08;;;;;;;102.70;54.50;;;15.40;72.80;;;;;;4991116;28;90244;-76
2023/04/20 07:42:37;;;;;;;100.50;54.13;;;15.50;72.80;;;;;;4997368;28;93339;-82
2023/04/20 07:45:04;;;;;;;99.32;53.72;;;15.50;72.70;;;;;;4994038;28;90887;-76
2023/04/20 07:47:30;;;;;;;101.35;54.28;;;15.50;72.90;;;;;;4994020;28;90038;-78
2023/04/20 07:49:56;;;;;;;104.07;53.95;;;15.50;72.80;;;;;;4992732;28;94428;-76
2023/04/20 07:52:23;;;;;;;101.28;54.20;;;15.50;73.10;;;;;;4992788;28;93945;-80
2023/04/20 07:54:48;;;;;;;101.65;54.30;;;15.50;72.80;;;;;;4992098;28;91263;-75
2023/04/20 07:57:14;;;;;;;100.05;54.35;;;15.50;73.00;;;;;;4994563;28;91349;-77
2023/04/20 07:59:40;;;;;;;104.55;54.60;;;15.50;73.00;;;;;;4996375;28;92568;-77
2023/04/20 08:02:07;;;;;;;101.93;54.38;;;15.50;73.00;;;;;;4992533;28;92505;-76
2023/04/20 08:04:34;;;;;;;100.88;54.58;;;15.60;73.40;;;;;;4994879;28;90273;-78
2023/04/20 08:07:00;;;;;;;103.50;54.13;;;15.60;73.50;;;;;;4991114;28;89306;-77
2023/04/20 08:09:27;;;;;;;100.93;54.53;;;15.60;73.40;;;;;;4991689;28;89894;-77
2023/04/20 08:11:52;;;;;;;104.43;54.47;;;15.60;73.60;;;;;;4991419;28;91618;-76
2023/04/20 08:14:18;;;;;;;100.93;54.28;;;15.60;72.70;;;;;;4992380;28;91201;-78
2023/04/20 08:16:44;;;;;;;99.38;54.00;;;15.60;72.60;;;;;;4993129;28;89865;-80
2023/04/20 08:19:10;;;;;;;102.15;54.00;;;15.60;72.30;;;;;;4997505;28;93182;-81
2023/04/20 08:21:36;;;;;;;101.68;54.53;;;15.70;73.10;;;;;;4996791;28;93582;-79
2023/04/20 08:24:03;;;;;;;101.78;54.15;;;15.70;72.40;;;;;;4998927;28;89928;-77
2023/04/20 08:26:29;;;;;;;102.03;54.60;;;15.70;72.10;;;;;;4998749;28;89590;-79
2023/04/20 08:28:55;;;;;;;101.28;54.28;;;15.70;71.90;;;;;;4998111;28;91738;-77
2023/04/20 08:31:21;;;;;;;101.30;53.55;;;15.70;72.30;;;;;;4999260;28;89932;-77
2023/04/20 08:33:46;;;;;;;101.82;54.50;;;15.70;72.30;;;;;;5001467;28;90437;-77
2023/04/20 08:36:12;;;;;;;100.72;54.28;;;15.70;71.90;;;;;;5003153;28;90081;-77
2023/04/20 08:38:38;;;;;;;99.95;54.15;;;15.70;72.80;;;;;;4998713;28;92116;-76
2023/04/20 08:41:03;;;;;;;100.38;53.67;;;15.70;71.80;;;;;;4996442;28;91296;-78
2023/04/20 08:43:30;;;;;;;99.07;53.90;;;15.70;71.60;;;;;;4998641;28;90796;-79
2023/04/20 08:45:58;;;;;;;103.75;54.40;;;15.70;71.80;;;;;;5010561;27;89703;-78
2023/04/20 08:48:27;;;;;;;103.72;53.97;;;15.70;71.50;;;;;;4995557;28;91157;-77
2023/04/20 08:50:54;;;;;;;98.65;54.08;;;15.70;71.20;;;;;;5001634;28;93988;-76
2023/04/20 08:53:20;;;;;;;102.22;54.00;;;15.70;71.00;;;;;;5015383;27;89663;-77
2023/04/20 08:55:48;;;;;;;103.57;54.08;;;15.80;71.00;;;;;;4998490;28;88988;-77
2023/04/20 08:58:14;;;;;;;99.47;53.50;;;15.80;71.40;;;;;;5016174;27;92864;-77
2023/04/20 09:00:48;;;;;;;102.10;53.92;;;15.80;72.10;;;;;;5001519;28;90662;-78
2023/04/20 09:03:13;;;;;;;100.82;53.72;;;15.80;71.00;;;;;;5020092;27;90615;-76
2023/04/20 09:05:40;;;;;;;107.30;53.95;;;15.80;71.30;;;;;;5002378;28;90542;-79
2023/04/20 09:08:07;;;;;;;100.07;53.72;;;15.80;71.30;;;;;;4996207;28;94758;-79
2023/04/20 09:10:41;;;;;;;107.70;54.17;;;15.80;71.20;;;;;;5000526;28;90870;-76
2023/04/20 09:13:06;;;;;;;102.75;54.33;;;15.90;71.20;;;;;;5001255;28;89539;-77
2023/04/20 09:15:32;;;;;;;109.43;54.30;;;15.80;71.30;;;;;;5000221;28;89962;-77
2023/04/20 09:17:58;;;;;;;100.88;53.78;;;15.90;71.50;;;;;;5000253;28;93982;-78
2023/04/20 09:20:31;;;;;;;101.70;53.88;;;15.80;71.00;;;;;;5003218;28;90300;-77
2023/04/20 09:23:09;;;;;;;100.43;53.97;;;15.90;71.10;;;;;;4998900;28;94469;-77
2023/04/20 09:25:35;;;;;;;104.03;54.28;;;15.90;71.10;;;;;;4995005;28;89525;-76
2023/04/20 09:28:01;;;;;;;101.43;53.95;;;15.90;70.60;;;;;;4991445;28;95009;-77
2023/04/20 09:30:40;;;;;;;101.38;53.75;;;15.90;70.30;;;;;;4997401;28;90208;-80
2023/04/20 09:33:09;;;;;;;99.30;54.15;;;15.80;70.10;;;;;;4996515;28;89884;-80
2023/04/20 09:35:36;;;;;;;101.68;53.70;;;15.90;69.90;;;;;;4996270;28;92464;-78
2023/04/20 09:38:03;;;;;;;102.20;53.83;;;15.90;69.60;;;;;;4996573;28;91167;-77
2023/04/20 09:40:29;;;;;;;103.05;53.60;;;15.90;69.80;;;;;;4994607;28;90153;-78
2023/04/20 09:43:01;;;;;;;100.93;54.03;;;15.90;69.90;;;;;;4995736;28;89360;-81
2023/04/20 09:45:27;;;;;;;102.72;53.97;;;15.90;70.00;;;;;;4998490;28;89147;-76
2023/04/20 09:47:54;;;;;;;99.32;54.05;;;15.90;70.00;;;;;;5000127;28;92645;-76
2023/04/20 09:50:20;;;;;;;98.75;53.85;;;15.90;69.60;;;;;;4996134;28;89959;-81
2023/04/20 09:52:50;;;;;;;99.25;53.67;;;15.90;69.10;;;;;;4998671;28;92188;-77
2023/04/20 09:55:15;;;;;;;97.60;53.85;;;15.90;69.10;;;;;;4997329;28;90416;-76
2023/04/20 09:57:43;;;;;;;101.45;53.47;;;15.90;69.30;;;;;;4996657;28;94143;-76
2023/04/20 10:00:09;;;;;;;103.22;53.90;;;15.90;69.80;;;;;;4996100;28;91063;-81
2023/04/20 10:02:36;;;;;;;99.90;53.70;;;16.00;70.20;;;;;;4994000;28;89843;-81
2023/04/20 10:05:02;;;;;;;102.35;54.35;;;16.10;70.60;;;;;;4992832;28;90362;-77
2023/04/20 10:07:31;;;;;;;100.78;54.75;;;16.20;71.70;;;;;;4992586;28;93389;-77
2023/04/20 10:10:11;;;;;;;100.07;54.42;;;16.20;70.90;;;;;;4994770;28;91375;-80
2023/04/20 10:12:54;;;;;;;102.10;54.33;;;16.30;70.70;;;;;;4994357;28;89984;-77
2023/04/20 10:15:23;;;;;;;102.57;54.30;;;16.30;70.40;;;;;;4994636;28;92180;-79
2023/04/20 10:17:49;;;;;;;101.28;54.42;;;16.30;70.80;;;;;;4998189;28;95710;-76
2023/04/20 10:20:27;;;;;;;100.60;54.67;;;16.40;71.00;;;;;;4995990;28;91472;-76
2023/04/20 10:23:05;;;;;;;100.53;54.17;;;16.40;71.10;;;;;;4998053;28;90086;-76
2023/04/20 10:25:30;;;;;;;100.43;54.17;;;16.40;71.10;;;;;;4998441;28;89606;-80
2023/04/20 10:28:04;;;;;;;100.47;54.00;;;16.40;71.40;;;;;;4997396;28;99947;-77
2023/04/20 10:30:31;;;;;;;101.38;54.22;;;16.40;70.40;;;;;;4994630;28;93061;-76
2023/04/20 10:33:06;;;;;;;99.10;53.85;;;16.50;70.10;;;;;;4994111;28;93057;-77
2023/04/20 10:35:42;;;;;;;102.00;53.90;;;16.50;69.90;;;;;;4994254;28;89358;-77
2023/04/20 10:38:10;;;;;;;101.10;53.97;;;16.50;69.90;;;;;;4994204;28;89929;-77
2023/04/20 10:40:36;;;;;;;101.65;54.10;;;16.50;69.70;;;;;;4995929;28;92728;-78
2023/04/20 10:43:02;;;;;;;99.90;53.97;;;16.50;69.70;;;;;;4992469;28;92894;-78
2023/04/20 10:45:40;;;;;;;99.45;53.97;;;16.50;69.80;;;;;;5000691;28;90436;-77
2023/04/20 10:48:09;;;;;;;102.32;53.95;;;16.50;70.20;;;;;;5000061;28;92727;-77
2023/04/20 10:50:35;;;;;;;99.97;53.88;;;16.50;70.40;;;;;;4994559;28;92821;-76
2023/04/20 10:53:03;;;;;;;99.72;54.00;;;16.50;70.50;;;;;;5008110;27;91071;-78
2023/04/20 10:55:29;;;;;;;100.53;53.65;;;16.60;70.80;;;;;;4999641;28;89847;-79
2023/04/20 10:57:55;;;;;;;99.03;53.55;;;16.60;70.90;;;;;;5002213;28;92081;-80
2023/04/20 11:00:26;;;;;;;102.07;53.67;;;16.60;70.90;;;;;;4998739;28;92546;-78
2023/04/20 11:02:56;;;;;;;;;;;16.60;70.80;;;;;;5003143;28;89638;-78
2023/04/20 11:05:23;;;;;;;98.88;53.58;;;16.60;70.90;;;;;;5002685;28;92707;-77
2023/04/20 11:07:57;;;;;;;99.45;53.70;;;16.70;70.90;;;;;;5000681;28;92825;-80
2023/04/20 11:10:35;;;;;;;100.50;53.60;;;16.70;70.50;;;;;;4996166;28;94568;-80
2023/04/20 11:13:01;;;;;;;99.85;54.00;;;16.70;70.50;;;;;;4996343;28;90075;-77
2023/04/20 11:15:34;;;;;;;99.35;53.67;;;16.70;70.60;;;;;;4995353;28;90209;-77
2023/04/20 11:18:07;;;;;;;99.38;53.58;;;16.70;70.80;;;;;;4998192;28;90305;-77
2023/04/20 11:20:33;;;;;;;100.68;54.00;;;16.80;70.80;;;;;;4992511;28;90317;-77
2023/04/20 11:22:58;;;;;;;99.47;53.92;;;16.80;70.70;;;;;;4993342;28;91351;-78
2023/04/20 11:25:24;;;;;;;98.70;53.88;;;16.80;70.60;;;;;;4995720;28;90309;-78
2023/04/20 11:27:50;;;;;;;98.85;53.72;;;16.80;70.70;;;;;;4997496;28;91822;-77
2023/04/20 11:30:16;;;;;;;99.70;54.00;;;16.80;70.60;;;;;;4995185;28;89872;-77
2023/04/20 11:32:41;;;;;;;101.70;54.00;;;16.80;70.80;;;;;;4994809;28;90657;-76
2023/04/20 11:35:09;;;;;;;99.88;53.85;;;16.80;70.90;;;;;;4997365;28;89902;-81
2023/04/20 11:37:49;;;;;;;101.90;54.30;;;16.80;70.80;;;;;;4998004;28;93013;-76
2023/04/20 11:40:16;;;;;;;99.18;53.83;;;16.80;70.90;;;;;;4994449;28;90404;-77
2023/04/20 11:42:42;;;;;;;99.68;53.80;;;16.80;71.10;;;;;;4997655;28;89642;-78
2023/04/20 11:45:10;;;;;;;100.20;53.63;;;16.80;71.10;;;;;;5001281;28;90337;-79
2023/04/20 11:47:37;;;;;;;98.45;53.65;;;16.80;70.80;;;;;;4999806;28;92204;-77
2023/04/20 11:50:04;;;;;;;100.80;53.90;;;16.80;70.70;;;;;;4993924;28;92926;-79
2023/04/20 11:52:29;;;;;;;99.53;54.00;;;16.80;70.80;;;;;;4991962;28;90148;-79
2023/04/20 11:54:55;;;;;;;98.88;53.72;;;16.90;71.00;;;;;;4998427;28;90001;-77
2023/04/20 11:57:22;;;;;;;98.97;53.72;;;16.90;71.00;;;;;;4991123;28;93844;-79
2023/04/20 11:59:48;;;;;;;99.90;54.00;;;16.90;71.00;;;;;;5000939;28;94144;-79
2023/04/20 12:02:14;;;;;;;100.22;54.03;;;16.90;70.80;;;;;;5001634;28;89673;-79
2023/04/20 12:04:40;;;;;;;100.43;53.90;;;16.90;70.40;;;;;;5001357;28;90460;-79
2023/04/20 12:07:06;;;;;;;98.20;53.65;;;17.00;70.00;;;;;;5000412;28;90095;-78
2023/04/20 12:09:36;;;;;;;99.03;53.88;;;17.00;70.00;;;;;;4996097;28;90789;-76
2023/04/20 12:12:07;;;;;;;101.33;54.27;;;17.00;69.80;;;;;;5003092;28;92111;-76
2023/04/20 12:14:33;;;;;;;100.47;53.97;;;17.10;69.50;;;;;;5002014;28;89060;-76
2023/04/20 12:17:03;;;;;;;98.70;53.65;;;17.10;69.10;;;;;;4995045;28;90529;-81
2023/04/20 12:19:29;;;;;;;101.55;53.70;;;17.20;69.10;;;;;;4997395;28;91659;-77